EDT,Max TemperatureF,Mean TemperatureF,Min TemperatureF,Max Dew PointF,MeanDew PointF,Min DewpointF,Max Humidity, Mean Humidity, Min Humidity, Max Sea Level PressureIn, Mean Sea Level PressureIn, Min Sea Level PressureIn, Max VisibilityMiles, Mean VisibilityMiles, Min VisibilityMiles, Max Wind SpeedMPH, Mean Wind SpeedMPH, Max Gust SpeedMPH,PrecipitationIn, CloudCover, Events, WindDirDegrees
2013-9-1,87,78,69,74,69,67,100,79,57,29.90,29.82,29.77,10,9,7,15,6,22,0.28,2,Rain-Thunderstorm,206
2013-9-2,87,79,70,73,70,64,93,77,61,29.89,29.85,29.81,10,8,0,26,4,33,0.48,3,Rain-Thunderstorm,251
2013-9-3,80,71,61,64,59,53,87,65,43,30.06,29.99,29.89,10,10,10,13,5,21,0.00,1,,2
2013-9-4,83,71,58,61,57,53,93,65,37,30.16,30.12,30.07,10,10,10,8,1,12,0.00,0,,338
2013-9-5,86,74,61,64,61,57,97,69,40,30.20,30.16,30.13,10,10,10,8,1,12,0.00,0,,356
2013-9-6,86,76,65,65,61,56,84,66,48,30.22,30.15,30.09,10,10,10,8,2,12,0.00,1,,51
2013-9-7,86,75,63,67,63,59,90,69,48,30.10,30.04,29.96,10,10,10,12,3,16,0.00,0,,215
2013-9-8,89,81,72,75,70,65,94,70,46,30.00,29.97,29.94,10,6,0,23,1,32,0.71,3,Rain-Thunderstorm,164
2013-9-9,91,80,69,71,70,68,100,75,50,30.04,30.00,29.96,10,8,4,10,3,15,0.00,1,,180
2013-9-10,92,83,74,73,71,69,87,70,52,30.14,30.11,30.04,10,9,6,12,5,17,0.00,1,Thunderstorm,204
2013-9-11,89,81,73,73,71,69,87,71,55,30.18,30.12,30.06,10,9,6,12,4,16,T,1,Rain,199
2013-9-12,82,77,71,70,67,63,93,74,54,30.05,29.99,29.91,10,8,2,16,6,18,0.04,1,Rain,265
2013-9-13,72,65,57,58,49,43,84,61,37,30.08,30.03,29.95,10,10,10,21,7,28,0.00,1,,359
2013-9-14,74,62,50,48,45,40,80,55,29,30.18,30.12,30.09,10,10,10,10,4,13,0.00,0,,60
2013-9-15,80,65,49,60,53,45,86,66,45,30.15,30.09,30.04,10,10,10,3,3,6,0.00,0,,212
2013-9-16,74,69,63,63,60,56,87,74,61,30.25,30.17,30.08,10,10,8,10,5,15,T,8,Rain,47
2013-9-17,77,67,56,55,53,49,86,62,38,30.28,30.22,30.14,10,10,10,12,4,16,0.00,0,,72
2013-9-18,78,69,60,67,63,55,90,77,64,30.17,30.12,30.07,10,9,6,12,3,16,T,5,Rain,216
2013-9-19,84,76,67,70,67,65,93,78,63,30.14,30.07,29.99,10,7,2,12,2,15,0.05,2,Rain,169
2013-9-20,86,77,68,72,69,66,93,76,58,30.00,29.89,29.82,10,6,1,16,6,20,1.15,5,Rain,248
2013-9-21,75,65,55,67,60,48,100,71,41,29.88,29.81,29.75,10,8,2,17,6,22,0.62,5,Rain,320
2013-9-22,72,61,50,50,48,46,96,70,44,30.00,29.96,29.89,10,10,10,12,3,20,0.00,0,,31
2013-9-23,74,64,53,50,48,45,77,59,41,30.09,30.03,30.00,10,10,10,10,5,15,0.00,0,,72
2013-9-24,80,67,54,61,55,49,89,69,48,30.05,29.97,29.88,10,10,10,8,3,10,0.00,2,,98
2013-9-25,79,72,64,64,60,57,87,71,54,29.91,29.87,29.85,10,10,10,13,4,16,0.00,2,,52
2013-9-26,79,67,55,57,53,50,93,65,37,30.06,30.00,29.92,10,10,7,9,2,13,0.00,0,,34
2013-9-27,81,68,54,59,54,51,93,65,36,30.17,30.11,30.06,10,9,4,8,1,13,0.00,0,,114
2013-9-28,81,68,55,61,57,52,93,69,45,30.18,30.11,30.06,10,10,10,10,2,15,0.00,0,,213
2013-9-29,68,63,58,61,59,56,93,83,73,30.09,30.05,30.03,10,10,7,12,3,14,0.06,5,Rain,189
2013-9-30,76,70,63,61,61,59,93,77,60,30.04,30.01,29.96,10,10,9,12,3,17,T,6,,194